createdAt,value
2022-10-26T00:01:27.144Z,4.80
2022-10-26T00:06:14.918Z,4.43
2022-10-26T00:11:07.588Z,4.93
2022-10-26T00:35:17.113Z,2.20
2022-10-26T00:41:08.517Z,3.83
2022-10-26T00:57:09.551Z,4.73
2022-10-26T01:07:33.505Z,6.53
2022-10-26T01:18:28.347Z,3.27
2022-10-26T01:23:32.934Z,3.73
2022-10-26T01:28:37.982Z,3.47
2022-10-26T01:33:44.289Z,5.37
2022-10-26T01:38:43.573Z,2.87
2022-10-26T01:43:50.224Z,4.33
2022-10-26T01:48:41.500Z,4.50
2022-10-26T01:53:31.762Z,2.10
2022-10-26T01:58:50.634Z,1.60
2022-10-26T02:03:54.634Z,2.17
2022-10-26T02:09:16.441Z,2.17
2022-10-26T02:14:20.437Z,4.93
2022-10-26T02:19:40.783Z,3.27
2022-10-26T02:24:31.952Z,3.63
2022-10-26T02:29:21.492Z,5.67
2022-10-26T02:34:09.222Z,3.33
2022-10-26T02:38:56.755Z,3.83
2022-10-26T02:43:46.457Z,4.87
2022-10-26T02:48:30.353Z,2.07
2022-10-26T02:53:20.185Z,3.87
2022-10-26T02:58:34.545Z,4.83
2022-10-26T03:03:43.554Z,3.80
2022-10-26T03:13:19.525Z,5.93
2022-10-26T03:18:03.190Z,2.43
2022-10-26T03:23:12.568Z,3.50
2022-10-26T03:28:00.035Z,5.10
2022-10-26T03:32:45.040Z,2.37
2022-10-26T03:37:31.648Z,2.07
2022-10-26T03:42:22.023Z,3.30
2022-10-26T03:47:09.809Z,2.67
2022-10-26T03:51:57.913Z,3.77
2022-10-26T03:56:44.802Z,4.23
2022-10-26T04:01:31.907Z,1.87
2022-10-26T04:06:40.647Z,2.10
2022-10-26T04:11:25.638Z,3.33
2022-10-26T04:16:12.913Z,5.10
2022-10-26T04:21:02.421Z,1.73
2022-10-26T04:25:49.264Z,2.33
2022-10-26T04:30:37.991Z,2.60
2022-10-26T04:35:24.298Z,1.30
2022-10-26T04:40:33.445Z,2.77
2022-10-26T04:45:18.358Z,2.37
2022-10-26T04:50:07.208Z,3.07
2022-10-26T04:54:52.674Z,2.60
2022-10-26T04:59:39.303Z,1.57
2022-10-26T05:04:31.807Z,4.90
2022-10-26T05:09:16.965Z,3.53
2022-10-26T05:14:06.300Z,1.30
2022-10-26T05:18:57.925Z,5.87
2022-10-26T05:23:51.285Z,1.70
2022-10-26T05:28:36.296Z,2.73
2022-10-26T05:33:21.777Z,1.63
2022-10-26T05:38:09.830Z,1.83
2022-10-26T05:43:01.363Z,2.77
2022-10-26T05:47:47.156Z,2.17
2022-10-26T05:52:49.542Z,1.77
2022-10-26T05:57:40.149Z,2.17
2022-10-26T06:02:31.407Z,1.40
2022-10-26T06:07:35.500Z,2.30
2022-10-26T06:12:20.032Z,2.73
2022-10-26T06:17:35.095Z,4.30
2022-10-26T06:22:41.000Z,3.40
2022-10-26T06:27:45.759Z,5.33
2022-10-26T06:32:32.255Z,2.40
2022-10-26T06:37:26.174Z,2.17
2022-10-26T06:42:12.030Z,2.43
2022-10-26T06:47:19.827Z,2.43
2022-10-26T06:52:21.085Z,1.10
2022-10-26T06:57:05.394Z,3.40
2022-10-26T07:01:53.138Z,1.73
2022-10-26T07:06:45.974Z,2.50
2022-10-26T07:11:29.740Z,2.17
2022-10-26T07:16:16.518Z,3.27
2022-10-26T07:21:07.166Z,3.03
2022-10-26T07:25:53.912Z,4.77
2022-10-26T07:30:43.924Z,5.57
2022-10-26T07:35:31.159Z,2.87
2022-10-26T07:40:19.451Z,3.03
2022-10-26T07:45:06.454Z,4.17
2022-10-26T07:49:53.886Z,5.40
2022-10-26T07:54:40.417Z,6.03
2022-10-26T07:59:31.667Z,3.83
2022-10-26T08:04:18.392Z,6.73
2022-10-26T08:09:06.205Z,5.20
2022-10-26T08:13:53.878Z,5.50
2022-10-26T08:18:42.131Z,2.77
2022-10-26T08:23:28.871Z,3.33
2022-10-26T08:28:21.540Z,6.43
2022-10-26T08:33:06.801Z,2.47
2022-10-26T08:37:56.446Z,2.80
2022-10-26T08:42:44.417Z,3.30
2022-10-26T08:47:43.138Z,2.23
2022-10-26T08:52:37.784Z,7.00
2022-10-26T08:57:37.467Z,2.73
2022-10-26T09:02:25.379Z,3.37
2022-10-26T09:07:33.931Z,6.73
2022-10-26T09:12:23.797Z,3.87
2022-10-26T09:17:40.403Z,5.43
2022-10-26T09:22:43.855Z,3.27
2022-10-26T09:27:33.703Z,5.87
2022-10-26T09:32:20.440Z,5.70
2022-10-26T09:37:21.239Z,6.07
2022-10-26T09:42:26.744Z,6.03
2022-10-26T09:47:29.993Z,3.73
2022-10-26T09:52:22.533Z,4.23
2022-10-26T09:57:07.814Z,3.67
2022-10-26T10:01:52.369Z,3.30
2022-10-26T10:06:43.406Z,4.70
2022-10-26T10:11:46.141Z,3.93
2022-10-26T10:16:36.774Z,6.17
2022-10-26T10:21:20.350Z,4.60
2022-10-26T10:26:12.399Z,3.93
2022-10-26T10:31:02.402Z,3.07
2022-10-26T10:36:03.048Z,2.10
2022-10-26T10:40:55.195Z,2.90
2022-10-26T10:45:40.747Z,2.60
2022-10-26T10:50:26.974Z,4.00
2022-10-26T10:55:28.444Z,3.57
2022-10-26T11:00:20.458Z,2.53
2022-10-26T11:05:39.429Z,2.77
2022-10-26T11:10:29.189Z,2.53
2022-10-26T11:15:17.836Z,1.20
2022-10-26T11:20:04.498Z,1.63
2022-10-26T11:24:54.938Z,2.10
2022-10-26T11:29:52.933Z,2.00
2022-10-26T11:35:13.406Z,3.43
2022-10-26T11:40:47.326Z,3.57
2022-10-26T11:45:41.062Z,1.43
2022-10-26T11:50:30.405Z,2.63
2022-10-26T11:55:14.346Z,1.00
2022-10-26T12:00:05.328Z,1.77
2022-10-26T12:04:54.792Z,1.80
2022-10-26T12:09:43.144Z,2.70
2022-10-26T12:14:39.744Z,1.47
2022-10-26T12:19:48.920Z,2.87
2022-10-26T12:24:35.666Z,0.60
2022-10-26T12:29:40.271Z,3.13
2022-10-26T12:35:02.424Z,2.50
2022-10-26T12:39:46.795Z,2.50
2022-10-26T12:44:37.425Z,2.10
2022-10-26T12:49:59.766Z,1.17
2022-10-26T12:55:46.938Z,0.80
2022-10-26T13:01:10.749Z,1.47
2022-10-26T13:06:41.284Z,0.80
2022-10-26T13:11:32.581Z,1.17
2022-10-26T13:16:18.452Z,1.03
2022-10-26T13:21:11.687Z,1.50
2022-10-26T13:26:29.431Z,2.07
2022-10-26T13:32:02.244Z,2.80
2022-10-26T13:37:03.840Z,1.00
2022-10-26T13:41:58.851Z,0.80
2022-10-26T13:46:43.330Z,1.10
2022-10-26T13:52:15.758Z,1.00
2022-10-26T13:57:23.652Z,1.57
2022-10-26T14:02:43.069Z,2.33
2022-10-26T14:14:27.807Z,1.27
2022-10-26T14:20:20.207Z,1.43
2022-10-26T14:31:32.890Z,1.87
2022-10-26T14:43:03.066Z,1.83
2022-10-26T14:48:18.248Z,1.77
2022-10-26T14:53:23.757Z,1.00
2022-10-26T14:58:26.724Z,1.93
2022-10-26T15:10:09.344Z,3.30
2022-10-26T15:15:11.610Z,2.93
2022-10-26T15:26:13.801Z,3.10
2022-10-26T15:36:33.484Z,4.17
2022-10-26T15:41:26.772Z,3.93
2022-10-26T15:53:07.599Z,1.70
2022-10-26T15:57:54.197Z,3.73
2022-10-26T16:03:50.288Z,3.67
2022-10-26T16:09:27.002Z,9.30
2022-10-26T16:14:13.489Z,3.60
2022-10-26T16:19:33.429Z,3.90
2022-10-26T16:31:47.668Z,4.27
2022-10-26T16:37:08.091Z,19.90
2022-10-26T16:43:19.781Z,9.23
2022-10-26T16:48:37.298Z,6.80
2022-10-26T16:53:22.698Z,9.20
2022-10-26T16:58:09.847Z,13.53
2022-10-26T17:02:57.866Z,14.83
2022-10-26T17:07:47.780Z,12.37
2022-10-26T17:12:36.709Z,8.87
2022-10-26T17:23:30.407Z,6.30
2022-10-26T17:28:23.908Z,4.97
2022-10-26T17:34:25.527Z,6.50
2022-10-26T17:39:13.115Z,5.97
2022-10-26T17:44:02.357Z,7.67
2022-10-26T17:55:15.661Z,5.17
2022-10-26T18:00:04.341Z,7.73
2022-10-26T18:05:06.890Z,4.27
2022-10-26T18:09:54.758Z,7.07
2022-10-26T18:21:23.180Z,8.47
2022-10-26T18:26:13.151Z,6.33
2022-10-26T18:31:03.271Z,6.27
2022-10-26T18:35:47.556Z,6.37
2022-10-26T18:41:21.511Z,6.17
2022-10-26T18:46:27.517Z,6.73
2022-10-26T18:51:14.162Z,6.33
2022-10-26T18:56:06.135Z,5.93
2022-10-26T19:00:52.274Z,6.60
2022-10-26T19:05:39.491Z,6.33
2022-10-26T19:10:25.274Z,5.07
2022-10-26T19:15:14.500Z,8.07
2022-10-26T19:20:01.762Z,8.30
2022-10-26T19:24:54.061Z,9.80
2022-10-26T19:35:45.150Z,9.30
2022-10-26T20:04:36.677Z,6.77
2022-10-26T20:09:26.577Z,5.47
2022-10-26T20:19:28.586Z,4.67
2022-10-26T20:24:18.407Z,4.20
2022-10-26T20:29:51.304Z,5.67
2022-10-26T20:48:06.948Z,4.47
2022-10-26T20:53:17.325Z,4.40
2022-10-26T20:58:12.607Z,7.20
2022-10-26T21:03:33.676Z,5.93
2022-10-26T21:08:19.745Z,5.90
2022-10-26T21:19:19.464Z,7.47
2022-10-26T21:24:05.112Z,7.00
2022-10-26T21:34:40.093Z,4.47
2022-10-26T21:40:00.595Z,8.13
2022-10-26T21:45:22.896Z,3.80
2022-10-26T21:57:09.145Z,4.90
2022-10-26T22:01:58.372Z,6.10
2022-10-26T22:06:44.946Z,4.80
2022-10-26T22:17:37.242Z,5.47
2022-10-26T22:23:34.869Z,5.20
2022-10-26T22:28:22.681Z,6.13
2022-10-26T22:33:41.184Z,5.43
2022-10-26T22:38:26.583Z,4.63
2022-10-26T22:43:27.845Z,3.03
2022-10-26T22:48:20.928Z,5.23
2022-10-26T22:53:55.445Z,6.30
2022-10-26T22:58:47.102Z,4.53
2022-10-26T23:03:31.673Z,4.10
2022-10-26T23:08:32.740Z,7.63
2022-10-26T23:14:25.259Z,4.63
2022-10-26T23:25:55.545Z,4.63
